sensor_id;sensor_type;location;lat;lon;timestamp;temperature;humidity
65044;DHT22;51617;48.158;16.464;2022-07-19T00:01:26;20.60;61.50
65044;DHT22;51617;48.158;16.464;2022-07-19T00:03:52;20.50;61.70
65044;DHT22;51617;48.158;16.464;2022-07-19T00:06:18;20.50;61.70
65044;DHT22;51617;48.158;16.464;2022-07-19T00:08:43;20.50;61.50
65044;DHT22;51617;48.158;16.464;2022-07-19T00:11:09;20.50;61.40
65044;DHT22;51617;48.158;16.464;2022-07-19T00:13:34;20.40;61.40
65044;DHT22;51617;48.158;16.464;2022-07-19T00:16:00;20.40;61.50
65044;DHT22;51617;48.158;16.464;2022-07-19T00:18:25;20.40;61.60
65044;DHT22;51617;48.158;16.464;2022-07-19T00:20:51;20.40;61.70
65044;DHT22;51617;48.158;16.464;2022-07-19T00:23:16;20.40;61.80
65044;DHT22;51617;48.158;16.464;2022-07-19T00:25:42;20.30;61.80
65044;DHT22;51617;48.158;16.464;2022-07-19T00:28:07;20.20;61.90
65044;DHT22;51617;48.158;16.464;2022-07-19T00:30:35;20.10;62.20
65044;DHT22;51617;48.158;16.464;2022-07-19T00:33:00;20.00;62.50
65044;DHT22;51617;48.158;16.464;2022-07-19T00:35:29;19.90;62.50
65044;DHT22;51617;48.158;16.464;2022-07-19T00:37:55;19.90;62.70
65044;DHT22;51617;48.158;16.464;2022-07-19T00:40:23;19.80;63.00
65044;DHT22;51617;48.158;16.464;2022-07-19T00:42:52;19.70;62.90
65044;DHT22;51617;48.158;16.464;2022-07-19T00:45:17;19.70;63.20
65044;DHT22;51617;48.158;16.464;2022-07-19T00:47:43;19.70;63.40
65044;DHT22;51617;48.158;16.464;2022-07-19T00:50:09;19.60;64.00
65044;DHT22;51617;48.158;16.464;2022-07-19T00:52:34;19.50;64.10
65044;DHT22;51617;48.158;16.464;2022-07-19T00:55:01;19.60;64.30
65044;DHT22;51617;48.158;16.464;2022-07-19T00:57:27;19.60;64.10
65044;DHT22;51617;48.158;16.464;2022-07-19T00:59:53;19.60;64.00
65044;DHT22;51617;48.158;16.464;2022-07-19T01:02:19;19.60;64.00
65044;DHT22;51617;48.158;16.464;2022-07-19T01:04:44;19.60;64.10
65044;DHT22;51617;48.158;16.464;2022-07-19T01:07:10;19.60;64.00
65044;DHT22;51617;48.158;16.464;2022-07-19T01:09:38;19.50;64.10
65044;DHT22;51617;48.158;16.464;2022-07-19T01:12:05;19.50;64.20
65044;DHT22;51617;48.158;16.464;2022-07-19T01:14:31;19.40;64.40
65044;DHT22;51617;48.158;16.464;2022-07-19T01:16:58;19.40;64.40
65044;DHT22;51617;48.158;16.464;2022-07-19T01:19:24;19.40;64.40
65044;DHT22;51617;48.158;16.464;2022-07-19T01:21:49;19.30;64.70
65044;DHT22;51617;48.158;16.464;2022-07-19T01:24:15;19.30;64.80
65044;DHT22;51617;48.158;16.464;2022-07-19T01:26:41;19.30;64.80
65044;DHT22;51617;48.158;16.464;2022-07-19T01:29:06;19.30;64.90
65044;DHT22;51617;48.158;16.464;2022-07-19T01:31:32;19.30;64.80
65044;DHT22;51617;48.158;16.464;2022-07-19T01:33:57;19.30;64.60
65044;DHT22;51617;48.158;16.464;2022-07-19T01:36:23;19.30;64.60
65044;DHT22;51617;48.158;16.464;2022-07-19T01:38:48;19.30;64.80
65044;DHT22;51617;48.158;16.464;2022-07-19T01:41:14;19.30;64.80
65044;DHT22;51617;48.158;16.464;2022-07-19T01:43:39;19.30;64.50
65044;DHT22;51617;48.158;16.464;2022-07-19T01:46:05;19.30;64.30
65044;DHT22;51617;48.158;16.464;2022-07-19T01:48:30;19.30;64.30
65044;DHT22;51617;48.158;16.464;2022-07-19T01:50:56;19.40;64.20
65044;DHT22;51617;48.158;16.464;2022-07-19T01:53:22;19.40;64.50
65044;DHT22;51617;48.158;16.464;2022-07-19T01:55:47;19.40;64.40
65044;DHT22;51617;48.158;16.464;2022-07-19T01:58:13;19.50;64.10
65044;DHT22;51617;48.158;16.464;2022-07-19T02:00:38;19.40;64.40
65044;DHT22;51617;48.158;16.464;2022-07-19T02:03:04;19.40;64.40
65044;DHT22;51617;48.158;16.464;2022-07-19T02:05:29;19.40;64.80
65044;DHT22;51617;48.158;16.464;2022-07-19T02:07:55;19.30;65.10
65044;DHT22;51617;48.158;16.464;2022-07-19T02:10:20;19.20;65.50
65044;DHT22;51617;48.158;16.464;2022-07-19T02:12:46;19.10;65.80
65044;DHT22;51617;48.158;16.464;2022-07-19T02:15:11;19.10;66.00
65044;DHT22;51617;48.158;16.464;2022-07-19T02:17:37;19.00;66.00
65044;DHT22;51617;48.158;16.464;2022-07-19T02:20:03;19.00;66.40
65044;DHT22;51617;48.158;16.464;2022-07-19T02:22:29;19.00;66.60
65044;DHT22;51617;48.158;16.464;2022-07-19T02:24:54;18.90;66.80
65044;DHT22;51617;48.158;16.464;2022-07-19T02:27:20;18.80;67.10
65044;DHT22;51617;48.158;16.464;2022-07-19T02:29:46;18.80;67.90
65044;DHT22;51617;48.158;16.464;2022-07-19T02:32:12;18.80;67.40
65044;DHT22;51617;48.158;16.464;2022-07-19T02:34:37;18.80;67.80
65044;DHT22;51617;48.158;16.464;2022-07-19T02:37:03;18.80;67.80
65044;DHT22;51617;48.158;16.464;2022-07-19T02:39:29;18.80;67.90
65044;DHT22;51617;48.158;16.464;2022-07-19T02:41:54;18.90;67.80
65044;DHT22;51617;48.158;16.464;2022-07-19T02:44:20;19.00;67.70
65044;DHT22;51617;48.158;16.464;2022-07-19T02:46:45;19.00;67.90
65044;DHT22;51617;48.158;16.464;2022-07-19T02:49:11;19.00;68.00
65044;DHT22;51617;48.158;16.464;2022-07-19T02:51:36;19.00;68.10
65044;DHT22;51617;48.158;16.464;2022-07-19T02:54:02;19.10;68.00
65044;DHT22;51617;48.158;16.464;2022-07-19T02:56:27;19.10;67.90
65044;DHT22;51617;48.158;16.464;2022-07-19T02:58:53;19.00;67.80
65044;DHT22;51617;48.158;16.464;2022-07-19T03:01:18;18.90;67.60
65044;DHT22;51617;48.158;16.464;2022-07-19T03:03:44;18.80;68.20
65044;DHT22;51617;48.158;16.464;2022-07-19T03:06:10;18.80;68.60
65044;DHT22;51617;48.158;16.464;2022-07-19T03:08:36;18.80;69.20
65044;DHT22;51617;48.158;16.464;2022-07-19T03:11:01;18.70;69.50
65044;DHT22;51617;48.158;16.464;2022-07-19T03:13:27;18.70;69.60
65044;DHT22;51617;48.158;16.464;2022-07-19T03:15:52;18.60;69.80
65044;DHT22;51617;48.158;16.464;2022-07-19T03:18:18;18.60;70.00
65044;DHT22;51617;48.158;16.464;2022-07-19T03:20:43;18.60;70.10
65044;DHT22;51617;48.158;16.464;2022-07-19T03:23:09;18.50;70.30
65044;DHT22;51617;48.158;16.464;2022-07-19T03:25:34;18.50;70.50
65044;DHT22;51617;48.158;16.464;2022-07-19T03:28:00;18.40;70.60
65044;DHT22;51617;48.158;16.464;2022-07-19T03:30:26;18.40;70.50
65044;DHT22;51617;48.158;16.464;2022-07-19T03:32:51;18.40;70.40
65044;DHT22;51617;48.158;16.464;2022-07-19T03:35:17;18.40;70.70
65044;DHT22;51617;48.158;16.464;2022-07-19T03:37:43;18.40;71.60
65044;DHT22;51617;48.158;16.464;2022-07-19T03:40:08;18.30;71.00
65044;DHT22;51617;48.158;16.464;2022-07-19T03:42:34;18.30;72.20
65044;DHT22;51617;48.158;16.464;2022-07-19T03:45:00;18.30;71.40
65044;DHT22;51617;48.158;16.464;2022-07-19T03:47:25;18.30;71.10
65044;DHT22;51617;48.158;16.464;2022-07-19T03:49:51;18.30;71.70
65044;DHT22;51617;48.158;16.464;2022-07-19T03:52:16;18.40;71.30
65044;DHT22;51617;48.158;16.464;2022-07-19T03:54:42;18.50;71.50
65044;DHT22;51617;48.158;16.464;2022-07-19T03:57:07;18.60;71.60
65044;DHT22;51617;48.158;16.464;2022-07-19T03:59:33;18.60;71.40
65044;DHT22;51617;48.158;16.464;2022-07-19T04:01:58;18.60;71.40
65044;DHT22;51617;48.158;16.464;2022-07-19T04:04:24;18.60;71.20
65044;DHT22;51617;48.158;16.464;2022-07-19T04:06:49;18.60;71.00
65044;DHT22;51617;48.158;16.464;2022-07-19T04:09:15;18.70;71.00
65044;DHT22;51617;48.158;16.464;2022-07-19T04:11:40;18.80;71.10
65044;DHT22;51617;48.158;16.464;2022-07-19T04:14:06;18.80;70.70
65044;DHT22;51617;48.158;16.464;2022-07-19T04:16:31;18.90;70.60
65044;DHT22;51617;48.158;16.464;2022-07-19T04:18:57;18.90;70.40
65044;DHT22;51617;48.158;16.464;2022-07-19T04:21:22;19.10;70.50
65044;DHT22;51617;48.158;16.464;2022-07-19T04:23:48;19.20;70.70
65044;DHT22;51617;48.158;16.464;2022-07-19T04:26:14;19.30;70.60
65044;DHT22;51617;48.158;16.464;2022-07-19T04:28:39;19.40;70.60
65044;DHT22;51617;48.158;16.464;2022-07-19T04:31:05;19.50;70.00
65044;DHT22;51617;48.158;16.464;2022-07-19T04:33:30;19.50;69.30
65044;DHT22;51617;48.158;16.464;2022-07-19T04:35:56;19.60;69.10
65044;DHT22;51617;48.158;16.464;2022-07-19T04:38:21;19.70;69.30
65044;DHT22;51617;48.158;16.464;2022-07-19T04:40:47;19.70;70.00
65044;DHT22;51617;48.158;16.464;2022-07-19T04:43:13;19.70;69.80
65044;DHT22;51617;48.158;16.464;2022-07-19T04:45:38;19.70;70.40
65044;DHT22;51617;48.158;16.464;2022-07-19T04:48:09;19.70;69.80
65044;DHT22;51617;48.158;16.464;2022-07-19T04:50:35;19.90;69.70
65044;DHT22;51617;48.158;16.464;2022-07-19T04:53:00;20.10;69.50
65044;DHT22;51617;48.158;16.464;2022-07-19T04:55:26;20.30;69.50
65044;DHT22;51617;48.158;16.464;2022-07-19T04:57:52;20.40;69.00
65044;DHT22;51617;48.158;16.464;2022-07-19T05:00:17;20.50;68.60
65044;DHT22;51617;48.158;16.464;2022-07-19T05:02:43;20.60;68.60
65044;DHT22;51617;48.158;16.464;2022-07-19T05:05:10;20.70;68.60
65044;DHT22;51617;48.158;16.464;2022-07-19T05:07:36;20.90;68.50
65044;DHT22;51617;48.158;16.464;2022-07-19T05:10:02;21.00;68.10
65044;DHT22;51617;48.158;16.464;2022-07-19T05:12:28;21.10;67.90
65044;DHT22;51617;48.158;16.464;2022-07-19T05:14:54;21.20;67.50
65044;DHT22;51617;48.158;16.464;2022-07-19T05:17:20;21.30;67.10
65044;DHT22;51617;48.158;16.464;2022-07-19T05:19:46;21.40;66.60
65044;DHT22;51617;48.158;16.464;2022-07-19T05:22:12;21.50;66.10
65044;DHT22;51617;48.158;16.464;2022-07-19T05:24:37;21.60;66.00
65044;DHT22;51617;48.158;16.464;2022-07-19T05:27:03;21.60;66.10
65044;DHT22;51617;48.158;16.464;2022-07-19T05:29:28;21.70;65.90
65044;DHT22;51617;48.158;16.464;2022-07-19T05:31:54;21.80;65.80
65044;DHT22;51617;48.158;16.464;2022-07-19T05:34:19;21.90;66.10
65044;DHT22;51617;48.158;16.464;2022-07-19T05:36:45;21.80;66.30
65044;DHT22;51617;48.158;16.464;2022-07-19T05:39:10;21.90;66.20
65044;DHT22;51617;48.158;16.464;2022-07-19T05:41:36;22.00;66.00
65044;DHT22;51617;48.158;16.464;2022-07-19T05:44:02;22.10;65.40
65044;DHT22;51617;48.158;16.464;2022-07-19T05:46:27;22.20;65.70
65044;DHT22;51617;48.158;16.464;2022-07-19T05:48:53;22.30;64.40
65044;DHT22;51617;48.158;16.464;2022-07-19T05:51:18;22.50;64.40
65044;DHT22;51617;48.158;16.464;2022-07-19T05:53:44;22.50;63.70
65044;DHT22;51617;48.158;16.464;2022-07-19T05:56:09;22.50;63.60
65044;DHT22;51617;48.158;16.464;2022-07-19T05:58:35;22.60;63.20
65044;DHT22;51617;48.158;16.464;2022-07-19T06:01:01;22.70;62.70
65044;DHT22;51617;48.158;16.464;2022-07-19T06:03:49;22.70;62.80
65044;DHT22;51617;48.158;16.464;2022-07-19T06:06:16;22.70;62.90
65044;DHT22;51617;48.158;16.464;2022-07-19T06:08:42;22.80;62.80
65044;DHT22;51617;48.158;16.464;2022-07-19T06:11:07;22.90;62.60
65044;DHT22;51617;48.158;16.464;2022-07-19T06:13:33;23.10;62.00
65044;DHT22;51617;48.158;16.464;2022-07-19T06:15:58;23.20;61.60
65044;DHT22;51617;48.158;16.464;2022-07-19T06:18:24;23.30;61.40
65044;DHT22;51617;48.158;16.464;2022-07-19T06:20:50;23.40;61.10
65044;DHT22;51617;48.158;16.464;2022-07-19T06:23:15;23.40;60.60
65044;DHT22;51617;48.158;16.464;2022-07-19T06:25:41;23.40;60.60
65044;DHT22;51617;48.158;16.464;2022-07-19T06:28:06;23.50;60.20
65044;DHT22;51617;48.158;16.464;2022-07-19T06:30:32;23.50;60.10
65044;DHT22;51617;48.158;16.464;2022-07-19T06:32:57;23.60;59.60
65044;DHT22;51617;48.158;16.464;2022-07-19T06:35:23;23.70;59.20
65044;DHT22;51617;48.158;16.464;2022-07-19T06:37:48;23.80;58.80
65044;DHT22;51617;48.158;16.464;2022-07-19T06:40:14;23.90;58.80
65044;DHT22;51617;48.158;16.464;2022-07-19T06:42:39;23.90;58.70
65044;DHT22;51617;48.158;16.464;2022-07-19T06:45:05;24.00;58.50
65044;DHT22;51617;48.158;16.464;2022-07-19T06:47:31;24.10;58.00
65044;DHT22;51617;48.158;16.464;2022-07-19T06:49:59;24.10;57.50
65044;DHT22;51617;48.158;16.464;2022-07-19T06:52:25;24.20;57.40
65044;DHT22;51617;48.158;16.464;2022-07-19T06:54:51;24.30;57.20
65044;DHT22;51617;48.158;16.464;2022-07-19T06:57:16;24.40;57.20
65044;DHT22;51617;48.158;16.464;2022-07-19T06:59:42;24.60;57.10
65044;DHT22;51617;48.158;16.464;2022-07-19T07:02:07;24.60;57.00
65044;DHT22;51617;48.158;16.464;2022-07-19T07:04:33;24.70;56.30
65044;DHT22;51617;48.158;16.464;2022-07-19T07:06:58;24.80;55.50
65044;DHT22;51617;48.158;16.464;2022-07-19T07:09:24;24.90;55.20
65044;DHT22;51617;48.158;16.464;2022-07-19T07:11:49;25.00;55.00
65044;DHT22;51617;48.158;16.464;2022-07-19T07:14:15;25.10;54.50
65044;DHT22;51617;48.158;16.464;2022-07-19T07:16:40;25.30;54.10
65044;DHT22;51617;48.158;16.464;2022-07-19T07:19:06;25.40;54.40
65044;DHT22;51617;48.158;16.464;2022-07-19T07:21:32;25.40;54.20
65044;DHT22;51617;48.158;16.464;2022-07-19T07:24:06;25.50;53.60
65044;DHT22;51617;48.158;16.464;2022-07-19T07:26:32;25.60;53.20
65044;DHT22;51617;48.158;16.464;2022-07-19T07:28:58;25.70;52.60
65044;DHT22;51617;48.158;16.464;2022-07-19T07:31:23;25.70;53.10
65044;DHT22;51617;48.158;16.464;2022-07-19T07:33:49;25.70;52.90
65044;DHT22;51617;48.158;16.464;2022-07-19T07:36:15;25.80;52.60
65044;DHT22;51617;48.158;16.464;2022-07-19T07:38:40;25.90;52.20
65044;DHT22;51617;48.158;16.464;2022-07-19T07:41:07;26.10;52.10
65044;DHT22;51617;48.158;16.464;2022-07-19T07:43:32;26.20;52.30
65044;DHT22;51617;48.158;16.464;2022-07-19T07:45:58;26.40;52.50
65044;DHT22;51617;48.158;16.464;2022-07-19T07:48:24;26.50;51.70
65044;DHT22;51617;48.158;16.464;2022-07-19T07:50:49;26.60;51.60
65044;DHT22;51617;48.158;16.464;2022-07-19T07:53:15;26.70;51.50
65044;DHT22;51617;48.158;16.464;2022-07-19T07:55:40;26.80;50.80
65044;DHT22;51617;48.158;16.464;2022-07-19T07:58:09;26.90;50.80
65044;DHT22;51617;48.158;16.464;2022-07-19T08:00:36;27.10;50.00
65044;DHT22;51617;48.158;16.464;2022-07-19T08:03:01;27.10;48.40
65044;DHT22;51617;48.158;16.464;2022-07-19T08:05:27;27.20;48.90
65044;DHT22;51617;48.158;16.464;2022-07-19T08:07:53;27.30;49.30
65044;DHT22;51617;48.158;16.464;2022-07-19T08:10:20;27.30;49.00
65044;DHT22;51617;48.158;16.464;2022-07-19T08:12:45;27.40;48.70
65044;DHT22;51617;48.158;16.464;2022-07-19T08:15:11;27.40;48.70
65044;DHT22;51617;48.158;16.464;2022-07-19T08:17:36;27.40;49.20
65044;DHT22;51617;48.158;16.464;2022-07-19T08:20:03;27.40;48.90
65044;DHT22;51617;48.158;16.464;2022-07-19T08:22:29;27.30;49.00
65044;DHT22;51617;48.158;16.464;2022-07-19T08:24:54;27.50;49.00
65044;DHT22;51617;48.158;16.464;2022-07-19T08:27:20;27.40;48.40
65044;DHT22;51617;48.158;16.464;2022-07-19T08:29:45;27.50;48.70
65044;DHT22;51617;48.158;16.464;2022-07-19T08:32:11;27.60;48.00
65044;DHT22;51617;48.158;16.464;2022-07-19T08:34:36;27.70;47.60
65044;DHT22;51617;48.158;16.464;2022-07-19T08:37:02;27.70;46.90
65044;DHT22;51617;48.158;16.464;2022-07-19T08:39:28;27.70;46.80
65044;DHT22;51617;48.158;16.464;2022-07-19T08:41:54;27.80;46.80
65044;DHT22;51617;48.158;16.464;2022-07-19T08:44:19;27.90;46.20
65044;DHT22;51617;48.158;16.464;2022-07-19T08:46:46;28.00;46.00
65044;DHT22;51617;48.158;16.464;2022-07-19T08:49:13;28.10;46.00
65044;DHT22;51617;48.158;16.464;2022-07-19T08:51:39;28.10;45.60
65044;DHT22;51617;48.158;16.464;2022-07-19T08:54:06;28.20;45.10
65044;DHT22;51617;48.158;16.464;2022-07-19T08:56:31;28.20;45.10
65044;DHT22;51617;48.158;16.464;2022-07-19T08:59:16;28.20;45.30
65044;DHT22;51617;48.158;16.464;2022-07-19T09:01:41;28.40;45.30
65044;DHT22;51617;48.158;16.464;2022-07-19T09:04:14;28.50;44.10
65044;DHT22;51617;48.158;16.464;2022-07-19T09:06:47;28.60;43.90
65044;DHT22;51617;48.158;16.464;2022-07-19T09:09:14;28.70;43.70
65044;DHT22;51617;48.158;16.464;2022-07-19T09:11:41;28.70;43.60
65044;DHT22;51617;48.158;16.464;2022-07-19T09:14:22;28.80;42.00
65044;DHT22;51617;48.158;16.464;2022-07-19T09:19:22;28.80;41.90
65044;DHT22;51617;48.158;16.464;2022-07-19T09:21:51;28.80;42.60
65044;DHT22;51617;48.158;16.464;2022-07-19T09:24:18;28.80;42.10
65044;DHT22;51617;48.158;16.464;2022-07-19T09:26:59;28.80;42.30
65044;DHT22;51617;48.158;16.464;2022-07-19T09:29:26;28.90;41.10
65044;DHT22;51617;48.158;16.464;2022-07-19T09:34:28;29.00;40.30
65044;DHT22;51617;48.158;16.464;2022-07-19T09:37:09;29.00;40.00
65044;DHT22;51617;48.158;16.464;2022-07-19T09:39:35;29.10;39.90
65044;DHT22;51617;48.158;16.464;2022-07-19T09:42:00;29.30;39.80
65044;DHT22;51617;48.158;16.464;2022-07-19T09:44:28;29.40;39.70
65044;DHT22;51617;48.158;16.464;2022-07-19T09:46:54;29.50;38.80
65044;DHT22;51617;48.158;16.464;2022-07-19T09:49:20;29.60;38.60
65044;DHT22;51617;48.158;16.464;2022-07-19T09:51:46;29.60;38.90
65044;DHT22;51617;48.158;16.464;2022-07-19T09:54:13;29.60;38.90
65044;DHT22;51617;48.158;16.464;2022-07-19T09:56:40;29.60;38.10
65044;DHT22;51617;48.158;16.464;2022-07-19T09:59:06;29.70;38.10
65044;DHT22;51617;48.158;16.464;2022-07-19T10:01:32;29.70;38.70
65044;DHT22;51617;48.158;16.464;2022-07-19T10:04:02;29.70;38.60
65044;DHT22;51617;48.158;16.464;2022-07-19T10:06:28;29.80;37.80
65044;DHT22;51617;48.158;16.464;2022-07-19T10:08:54;29.90;37.70
65044;DHT22;51617;48.158;16.464;2022-07-19T10:11:21;29.90;37.70
65044;DHT22;51617;48.158;16.464;2022-07-19T10:13:48;30.00;37.50
65044;DHT22;51617;48.158;16.464;2022-07-19T10:16:15;30.10;37.50
65044;DHT22;51617;48.158;16.464;2022-07-19T10:18:44;30.20;37.50
65044;DHT22;51617;48.158;16.464;2022-07-19T10:21:13;30.30;37.90
65044;DHT22;51617;48.158;16.464;2022-07-19T10:23:39;30.40;38.40
65044;DHT22;51617;48.158;16.464;2022-07-19T10:26:32;30.50;38.10
65044;DHT22;51617;48.158;16.464;2022-07-19T10:31:34;30.50;37.10
65044;DHT22;51617;48.158;16.464;2022-07-19T10:34:02;30.40;36.80
65044;DHT22;51617;48.158;16.464;2022-07-19T10:36:38;30.30;37.00
65044;DHT22;51617;48.158;16.464;2022-07-19T10:39:46;30.40;37.30
65044;DHT22;51617;48.158;16.464;2022-07-19T10:42:04;30.20;36.90
65044;DHT22;51617;48.158;16.464;2022-07-19T10:44:30;30.30;37.00
65044;DHT22;51617;48.158;16.464;2022-07-19T10:46:55;30.40;37.40
65044;DHT22;51617;48.158;16.464;2022-07-19T10:52:30;30.50;36.50
65044;DHT22;51617;48.158;16.464;2022-07-19T10:57:40;30.60;35.90
65044;DHT22;51617;48.158;16.464;2022-07-19T11:02:47;30.70;36.10
65044;DHT22;51617;48.158;16.464;2022-07-19T11:05:26;30.90;35.60
65044;DHT22;51617;48.158;16.464;2022-07-19T11:07:52;31.00;34.90
65044;DHT22;51617;48.158;16.464;2022-07-19T11:10:25;31.00;35.20
65044;DHT22;51617;48.158;16.464;2022-07-19T11:12:52;31.10;36.00
65044;DHT22;51617;48.158;16.464;2022-07-19T11:15:17;31.10;35.10
65044;DHT22;51617;48.158;16.464;2022-07-19T11:17:50;31.20;35.00
65044;DHT22;51617;48.158;16.464;2022-07-19T11:20:16;31.30;34.70
65044;DHT22;51617;48.158;16.464;2022-07-19T11:22:44;31.30;34.70
65044;DHT22;51617;48.158;16.464;2022-07-19T11:25:10;31.40;34.60
65044;DHT22;51617;48.158;16.464;2022-07-19T11:27:36;31.40;34.50
65044;DHT22;51617;48.158;16.464;2022-07-19T11:30:05;31.50;35.00
65044;DHT22;51617;48.158;16.464;2022-07-19T11:32:31;31.50;34.80
65044;DHT22;51617;48.158;16.464;2022-07-19T11:35:00;31.50;35.30
65044;DHT22;51617;48.158;16.464;2022-07-19T11:37:27;31.60;35.20
65044;DHT22;51617;48.158;16.464;2022-07-19T11:39:53;31.70;35.10
65044;DHT22;51617;48.158;16.464;2022-07-19T11:42:32;31.70;35.00
65044;DHT22;51617;48.158;16.464;2022-07-19T11:44:58;31.70;36.00
65044;DHT22;51617;48.158;16.464;2022-07-19T11:47:23;31.80;35.20
65044;DHT22;51617;48.158;16.464;2022-07-19T11:49:49;31.80;35.00
65044;DHT22;51617;48.158;16.464;2022-07-19T11:52:14;31.80;35.20
65044;DHT22;51617;48.158;16.464;2022-07-19T11:54:40;32.00;35.00
65044;DHT22;51617;48.158;16.464;2022-07-19T11:57:21;32.00;34.50
65044;DHT22;51617;48.158;16.464;2022-07-19T11:59:47;31.90;34.60
65044;DHT22;51617;48.158;16.464;2022-07-19T12:02:12;32.00;35.50
65044;DHT22;51617;48.158;16.464;2022-07-19T12:04:38;32.20;34.60
65044;DHT22;51617;48.158;16.464;2022-07-19T12:07:03;32.20;34.80
65044;DHT22;51617;48.158;16.464;2022-07-19T12:09:29;32.30;33.60
65044;DHT22;51617;48.158;16.464;2022-07-19T12:11:58;32.30;33.20
65044;DHT22;51617;48.158;16.464;2022-07-19T12:16:49;32.20;33.40
65044;DHT22;51617;48.158;16.464;2022-07-19T12:19:15;32.30;33.60
65044;DHT22;51617;48.158;16.464;2022-07-19T12:21:44;32.30;32.90
65044;DHT22;51617;48.158;16.464;2022-07-19T12:26:36;32.50;33.10
65044;DHT22;51617;48.158;16.464;2022-07-19T12:29:01;32.60;33.70
65044;DHT22;51617;48.158;16.464;2022-07-19T12:31:44;32.70;33.40
65044;DHT22;51617;48.158;16.464;2022-07-19T12:34:10;32.70;32.70
65044;DHT22;51617;48.158;16.464;2022-07-19T12:36:36;32.80;32.40
65044;DHT22;51617;48.158;16.464;2022-07-19T12:39:02;32.80;32.20
65044;DHT22;51617;48.158;16.464;2022-07-19T12:41:28;32.80;32.40
65044;DHT22;51617;48.158;16.464;2022-07-19T12:43:53;32.80;32.40
65044;DHT22;51617;48.158;16.464;2022-07-19T12:46:19;32.70;32.40
65044;DHT22;51617;48.158;16.464;2022-07-19T12:48:44;32.80;32.30
65044;DHT22;51617;48.158;16.464;2022-07-19T12:51:10;32.80;32.30
65044;DHT22;51617;48.158;16.464;2022-07-19T12:53:35;32.80;32.70
65044;DHT22;51617;48.158;16.464;2022-07-19T12:56:01;32.80;32.40
65044;DHT22;51617;48.158;16.464;2022-07-19T12:58:27;32.80;32.80
65044;DHT22;51617;48.158;16.464;2022-07-19T13:01:11;32.90;32.10
65044;DHT22;51617;48.158;16.464;2022-07-19T13:03:40;33.00;32.70
65044;DHT22;51617;48.158;16.464;2022-07-19T13:06:06;33.10;32.10
65044;DHT22;51617;48.158;16.464;2022-07-19T13:08:32;33.20;31.70
65044;DHT22;51617;48.158;16.464;2022-07-19T13:10:57;33.30;32.30
65044;DHT22;51617;48.158;16.464;2022-07-19T13:13:26;33.40;32.30
65044;DHT22;51617;48.158;16.464;2022-07-19T13:15:51;33.50;31.70
65044;DHT22;51617;48.158;16.464;2022-07-19T13:18:17;33.60;31.70
65044;DHT22;51617;48.158;16.464;2022-07-19T13:20:43;33.50;31.30
65044;DHT22;51617;48.158;16.464;2022-07-19T13:23:09;33.40;31.50
65044;DHT22;51617;48.158;16.464;2022-07-19T13:25:34;33.50;32.00
65044;DHT22;51617;48.158;16.464;2022-07-19T13:28:00;33.60;32.10
65044;DHT22;51617;48.158;16.464;2022-07-19T13:30:25;33.70;32.30
65044;DHT22;51617;48.158;16.464;2022-07-19T13:32:51;33.70;31.50
65044;DHT22;51617;48.158;16.464;2022-07-19T13:35:16;33.70;31.20
65044;DHT22;51617;48.158;16.464;2022-07-19T13:37:42;33.80;31.80
65044;DHT22;51617;48.158;16.464;2022-07-19T13:40:08;33.90;32.30
65044;DHT22;51617;48.158;16.464;2022-07-19T13:42:33;34.00;32.50
65044;DHT22;51617;48.158;16.464;2022-07-19T13:44:59;33.90;31.70
65044;DHT22;51617;48.158;16.464;2022-07-19T13:47:24;34.10;31.70
65044;DHT22;51617;48.158;16.464;2022-07-19T13:49:50;34.20;32.20
65044;DHT22;51617;48.158;16.464;2022-07-19T13:52:15;34.30;31.50
65044;DHT22;51617;48.158;16.464;2022-07-19T13:54:41;34.50;31.20
65044;DHT22;51617;48.158;16.464;2022-07-19T13:57:06;34.40;31.50
65044;DHT22;51617;48.158;16.464;2022-07-19T13:59:32;34.50;30.80
65044;DHT22;51617;48.158;16.464;2022-07-19T14:01:59;34.40;30.70
65044;DHT22;51617;48.158;16.464;2022-07-19T14:04:25;34.30;30.30
65044;DHT22;51617;48.158;16.464;2022-07-19T14:06:50;34.40;30.70
65044;DHT22;51617;48.158;16.464;2022-07-19T14:09:16;34.30;30.70
65044;DHT22;51617;48.158;16.464;2022-07-19T14:11:43;34.30;30.90
65044;DHT22;51617;48.158;16.464;2022-07-19T14:14:10;34.60;31.10
65044;DHT22;51617;48.158;16.464;2022-07-19T14:16:35;34.70;31.00
65044;DHT22;51617;48.158;16.464;2022-07-19T14:19:01;34.90;31.50
65044;DHT22;51617;48.158;16.464;2022-07-19T14:21:26;34.90;30.80
65044;DHT22;51617;48.158;16.464;2022-07-19T14:23:56;35.00;30.60
65044;DHT22;51617;48.158;16.464;2022-07-19T14:26:21;35.20;31.10
65044;DHT22;51617;48.158;16.464;2022-07-19T14:28:47;35.40;30.80
65044;DHT22;51617;48.158;16.464;2022-07-19T14:31:12;35.60;30.80
65044;DHT22;51617;48.158;16.464;2022-07-19T14:33:41;35.80;30.90
65044;DHT22;51617;48.158;16.464;2022-07-19T14:36:06;36.00;30.40
65044;DHT22;51617;48.158;16.464;2022-07-19T14:38:32;36.20;30.00
65044;DHT22;51617;48.158;16.464;2022-07-19T14:40:57;36.30;30.10
65044;DHT22;51617;48.158;16.464;2022-07-19T14:43:23;36.40;29.80
65044;DHT22;51617;48.158;16.464;2022-07-19T14:45:48;36.50;29.80
65044;DHT22;51617;48.158;16.464;2022-07-19T14:48:14;36.70;29.70
65044;DHT22;51617;48.158;16.464;2022-07-19T14:50:40;36.80;29.70
65044;DHT22;51617;48.158;16.464;2022-07-19T14:53:05;37.00;29.30
65044;DHT22;51617;48.158;16.464;2022-07-19T14:55:31;38.20;29.30
65044;DHT22;51617;48.158;16.464;2022-07-19T14:57:56;39.20;28.00
65044;DHT22;51617;48.158;16.464;2022-07-19T15:00:22;40.60;28.10
65044;DHT22;51617;48.158;16.464;2022-07-19T15:02:47;41.80;27.20
65044;DHT22;51617;48.158;16.464;2022-07-19T15:05:13;42.70;26.20
65044;DHT22;51617;48.158;16.464;2022-07-19T15:07:38;42.40;26.30
65044;DHT22;51617;48.158;16.464;2022-07-19T15:10:04;43.20;26.20
65044;DHT22;51617;48.158;16.464;2022-07-19T15:12:30;44.00;26.00
65044;DHT22;51617;48.158;16.464;2022-07-19T15:14:55;44.70;25.60
65044;DHT22;51617;48.158;16.464;2022-07-19T15:17:21;45.10;25.50
65044;DHT22;51617;48.158;16.464;2022-07-19T15:19:46;45.40;25.00
65044;DHT22;51617;48.158;16.464;2022-07-19T15:22:12;45.80;24.90
65044;DHT22;51617;48.158;16.464;2022-07-19T15:24:37;46.00;24.80
65044;DHT22;51617;48.158;16.464;2022-07-19T15:27:03;46.50;24.30
65044;DHT22;51617;48.158;16.464;2022-07-19T15:29:28;46.10;24.40
65044;DHT22;51617;48.158;16.464;2022-07-19T15:31:54;46.50;24.40